Time;durP1;ratioP1;P1;durP2;ratioP2;P2;SDS_P1;SDS_P2;PMS_P1;PMS_P2;Temp;Humidity;BMP_temperature;BMP_pressure;BME280_temperature;BME280_humidity;BME280_pressure;Samples;Min_cycle;Max_cycle;Signal;HPM_P1;HPM_P2
2023/06/30 00:01:30;;;;;;;6.53;2.97;;;;;;;19.23;100.00;96009.81;5007393;28;105061;-57
2023/06/30 00:03:57;;;;;;;2.90;2.43;;;;;;;19.27;100.00;96010.75;5007966;28;101860;-56
2023/06/30 00:06:24;;;;;;;4.40;2.80;;;;;;;19.31;100.00;96000.94;5010633;28;105023;-56
2023/06/30 00:08:52;;;;;;;2.70;2.50;;;;;;;19.37;100.00;96005.88;5007647;28;101878;-56
2023/06/30 00:11:23;;;;;;;2.90;2.50;;;;;;;19.43;100.00;95998.41;5008208;28;105131;-57
2023/06/30 00:13:52;;;;;;;6.87;2.90;;;;;;;19.39;100.00;95992.84;5007298;28;103757;-56
2023/06/30 00:16:19;;;;;;;3.40;2.60;;;;;;;19.28;100.00;95980.78;5007613;28;101895;-57
2023/06/30 00:18:46;;;;;;;3.67;2.90;;;;;;;19.31;100.00;95974.78;5007328;28;105593;-57
2023/06/30 00:21:13;;;;;;;2.70;2.50;;;;;;;19.34;100.00;95976.06;5007047;28;105801;-56
2023/06/30 00:23:40;;;;;;;3.27;2.40;;;;;;;19.31;100.00;95960.50;5007772;28;102141;-57
2023/06/30 00:26:08;;;;;;;2.90;2.60;;;;;;;19.26;100.00;95960.63;5007679;28;103852;-57
2023/06/30 00:28:36;;;;;;;3.53;2.90;;;;;;;19.28;100.00;95950.31;5009768;28;101926;-57
2023/06/30 00:31:03;;;;;;;6.47;2.93;;;;;;;19.21;100.00;95955.34;5008850;28;102922;-56
2023/06/30 00:33:30;;;;;;;3.50;3.00;;;;;;;19.18;100.00;95929.81;5006942;28;105305;-57
2023/06/30 00:35:57;;;;;;;2.97;2.70;;;;;;;19.19;100.00;95934.09;5007560;28;101886;-55
2023/06/30 00:38:24;;;;;;;3.30;3.00;;;;;;;19.15;100.00;95930.47;5007593;28;104659;-56
2023/06/30 00:40:51;;;;;;;3.63;3.00;;;;;;;19.13;100.00;95919.19;5006826;28;105559;-57
2023/06/30 00:43:19;;;;;;;3.73;2.53;;;;;;;19.12;100.00;95922.22;5007279;28;101853;-56
2023/06/30 00:45:48;;;;;;;3.17;2.90;;;;;;;19.01;100.00;95931.72;5007532;28;104976;-57
2023/06/30 00:48:17;;;;;;;4.33;3.00;;;;;;;18.95;100.00;95932.94;5010112;28;105077;-55
2023/06/30 00:50:44;;;;;;;2.80;2.60;;;;;;;18.97;100.00;95936.91;5008865;28;102996;-57
2023/06/30 00:53:12;;;;;;;2.70;2.50;;;;;;;18.95;100.00;95938.34;5006754;28;104193;-56
2023/06/30 00:55:41;;;;;;;3.10;2.80;;;;;;;18.92;100.00;95941.69;5009663;28;101951;-57
2023/06/30 00:58:08;;;;;;;2.63;2.43;;;;;;;18.63;100.00;95949.50;5010796;28;102920;-53
2023/06/30 01:00:37;;;;;;;3.30;2.77;;;;;;;18.41;100.00;95949.53;5009942;28;105582;-57
2023/06/30 01:03:13;;;;;;;4.33;2.90;;;;;;;18.46;100.00;95946.72;5010593;28;102207;-56
2023/06/30 01:05:47;;;;;;;3.27;2.67;;;;;;;18.60;100.00;95936.66;5010724;28;104178;-57
2023/06/30 01:08:21;;;;;;;4.50;3.03;;;;;;;18.67;100.00;95931.59;5009918;28;105646;-57
2023/06/30 01:10:50;;;;;;;2.90;2.53;;;;;;;18.75;100.00;95933.53;5013975;28;101911;-57
2023/06/30 01:13:18;;;;;;;2.87;2.67;;;;;;;18.78;100.00;95928.31;5009839;28;105113;-56
2023/06/30 01:15:48;;;;;;;4.27;2.77;;;;;;;18.73;100.00;95930.34;5010330;28;101964;-55
2023/06/30 01:18:20;;;;;;;3.33;2.53;;;;;;;18.66;100.00;95935.41;5010180;28;105701;-57
2023/06/30 01:20:49;;;;;;;3.53;2.63;;;;;;;18.67;100.00;95926.22;5009850;28;105360;-55
2023/06/30 01:23:21;;;;;;;3.37;3.07;;;;;;;18.61;100.00;95920.19;5010254;28;101968;-56
2023/06/30 01:25:50;;;;;;;3.33;3.03;;;;;;;18.67;100.00;95923.53;5010213;28;105620;-57
2023/06/30 01:28:17;;;;;;;2.83;2.63;;;;;;;18.66;100.00;95925.44;5009299;28;105078;-55
2023/06/30 01:30:46;;;;;;;3.67;3.00;;;;;;;18.74;100.00;95913.09;5010166;28;102283;-56
2023/06/30 01:33:13;;;;;;;3.43;3.10;;;;;;;18.75;100.00;95912.00;5012862;28;104912;-55
2023/06/30 01:35:41;;;;;;;3.03;2.83;;;;;;;18.77;100.00;95913.28;5010037;28;101977;-57
2023/06/30 01:38:08;;;;;;;3.23;2.93;;;;;;;18.83;100.00;95911.22;5010236;28;104063;-57
2023/06/30 01:40:34;;;;;;;2.80;2.60;;;;;;;18.87;100.00;95914.88;5009254;28;105773;-56
2023/06/30 01:43:02;;;;;;;3.40;3.10;;;;;;;18.87;100.00;95913.00;5009818;28;101856;-57
2023/06/30 01:45:29;;;;;;;3.20;3.00;;;;;;;18.82;100.00;95915.00;5009955;28;105104;-56
2023/06/30 01:47:58;;;;;;;3.30;3.00;;;;;;;18.82;100.00;95901.53;5009157;28;105851;-55
2023/06/30 01:50:29;;;;;;;4.20;3.40;;;;;;;18.86;100.00;95908.69;5009981;28;102041;-55
2023/06/30 01:52:57;;;;;;;3.40;3.10;;;;;;;18.81;100.00;95908.03;5009814;28;105654;-57
2023/06/30 01:55:24;;;;;;;3.77;3.23;;;;;;;18.80;100.00;95909.16;5012556;28;105308;-56
2023/06/30 01:57:52;;;;;;;3.20;2.90;;;;;;;18.81;100.00;95910.75;5009628;28;103799;-57
2023/06/30 02:00:19;;;;;;;3.00;2.80;;;;;;;18.77;100.00;95899.00;5009057;28;105434;-55
2023/06/30 02:02:47;;;;;;;3.57;3.27;;;;;;;18.73;100.00;95903.41;5009724;28;102316;-54
2023/06/30 02:05:15;;;;;;;4.10;3.70;;;;;;;18.79;100.00;95902.16;5009430;28;105143;-56
2023/06/30 02:07:42;;;;;;;4.00;3.57;;;;;;;18.81;100.00;95900.75;5007906;28;105483;-54
2023/06/30 02:10:10;;;;;;;3.90;3.50;;;;;;;18.73;100.00;95898.03;5009487;28;101954;-55
2023/06/30 02:12:37;;;;;;;4.00;3.60;;;;;;;18.78;100.00;95896.00;5009514;28;104882;-55
2023/06/30 02:15:05;;;;;;;4.77;4.07;;;;;;;18.68;100.00;95898.16;5008668;28;105462;-56
2023/06/30 02:17:33;;;;;;;4.07;3.73;;;;;;;18.72;100.00;95896.44;5012460;28;102000;-57
2023/06/30 02:20:02;;;;;;;5.63;4.20;;;;;;;18.70;100.00;95893.28;5008779;28;105694;-56
2023/06/30 02:22:30;;;;;;;5.00;4.50;;;;;;;18.72;100.00;95888.38;5009399;28;101892;-56
2023/06/30 02:24:57;;;;;;;6.33;4.80;;;;;;;18.72;100.00;95897.25;5009463;28;104836;-56
2023/06/30 02:27:25;;;;;;;6.70;4.97;;;;;;;18.73;100.00;95892.63;5010098;28;102670;-56
2023/06/30 02:29:52;;;;;;;5.03;4.47;;;;;;;18.78;100.00;95892.50;5009286;28;102118;-54
2023/06/30 02:32:18;;;;;;;5.93;4.57;;;;;;;18.80;100.00;95893.00;5009282;28;104886;-56
2023/06/30 02:34:45;;;;;;;5.47;4.97;;;;;;;18.73;100.00;95896.13;5008700;28;104243;-57
2023/06/30 02:37:12;;;;;;;7.73;5.70;;;;;;;18.74;100.00;95894.25;5012635;28;102126;-55
2023/06/30 02:39:41;;;;;;;6.20;5.50;;;;;;;18.74;100.00;95894.25;5008423;28;105203;-56
2023/06/30 02:42:08;;;;;;;7.77;5.60;;;;;;;18.69;100.00;95897.09;5008901;28;101943;-56
2023/06/30 02:44:35;;;;;;;6.37;5.77;;;;;;;18.69;100.00;95897.09;5009070;28;104035;-55
2023/06/30 02:47:03;;;;;;;6.73;6.03;;;;;;;18.66;100.00;95886.94;5008439;28;105432;-54
2023/06/30 02:49:31;;;;;;;7.03;5.70;;;;;;;18.68;100.00;95895.47;5009011;28;102028;-56
2023/06/30 02:51:58;;;;;;;7.00;6.30;;;;;;;18.63;100.00;95887.56;5008881;28;103972;-54
2023/06/30 02:54:25;;;;;;;7.10;6.20;;;;;;;18.62;100.00;95891.34;5008282;28;105822;-56
2023/06/30 02:56:53;;;;;;;7.77;6.37;;;;;;;18.61;100.00;95887.06;5008965;28;101945;-55
2023/06/30 02:59:20;;;;;;;8.83;6.77;;;;;;;18.65;100.00;95883.44;5011795;28;104633;-57
2023/06/30 03:01:47;;;;;;;7.90;6.50;;;;;;;18.65;100.00;95885.34;5008706;28;101916;-56
2023/06/30 03:04:15;;;;;;;9.53;6.70;;;;;;;18.69;100.00;95879.00;5008784;28;105226;-56
2023/06/30 03:06:41;;;;;;;10.30;7.10;;;;;;;18.79;100.00;95864.44;5008081;28;105670;-56
2023/06/30 03:09:10;;;;;;;9.00;7.63;;;;;;;18.80;100.00;95864.13;5008549;28;101879;-54
2023/06/30 03:11:38;;;;;;;8.10;6.80;;;;;;;18.78;100.00;95860.97;5008561;28;104595;-55
2023/06/30 03:14:06;;;;;;;7.77;6.97;;;;;;;18.77;100.00;95866.66;5007757;28;103873;-55
2023/06/30 03:16:51;;;;;;;8.27;7.20;;;;;;;18.76;100.00;95883.94;5008469;28;101956;-56
2023/06/30 03:19:17;;;;;;;7.83;6.67;;;;;;;18.80;100.00;95895.69;5007965;28;104817;-56
2023/06/30 03:21:44;;;;;;;10.07;7.37;;;;;;;18.75;100.00;95896.59;5011458;28;105169;-56
2023/06/30 03:24:12;;;;;;;9.50;7.53;;;;;;;18.74;100.00;95903.09;5008323;28;105841;-57
2023/06/30 03:26:38;;;;;;;9.43;7.37;;;;;;;18.77;100.00;95899.00;5007831;28;105195;-56
2023/06/30 03:29:15;;;;;;;9.10;7.90;;;;;;;18.73;100.00;95904.22;5008080;28;102998;-56
2023/06/30 03:31:42;;;;;;;9.73;7.80;;;;;;;18.84;100.00;95899.31;5008344;28;104953;-56
2023/06/30 03:34:08;;;;;;;11.27;8.17;;;;;;;18.91;100.00;95907.75;5007780;28;105436;-55
2023/06/30 03:36:35;;;;;;;10.87;8.23;;;;;;;18.89;100.00;95907.25;5008165;28;102076;-55
2023/06/30 03:39:04;;;;;;;11.13;8.03;;;;;;;18.92;100.00;95912.03;5008078;28;105344;-54
2023/06/30 03:41:32;;;;;;;9.80;7.93;;;;;;;18.96;100.00;95910.31;5007640;28;105134;-53
2023/06/30 03:44:00;;;;;;;12.70;8.67;;;;;;;18.97;100.00;95914.59;5011860;28;101951;-56
2023/06/30 03:46:29;;;;;;;11.77;8.40;;;;;;;19.03;100.00;95907.94;5007709;28;105174;-56
2023/06/30 03:48:55;;;;;;;10.03;8.47;;;;;;;19.00;100.00;95903.97;5008090;28;101878;-56
2023/06/30 03:51:22;;;;;;;10.03;8.10;;;;;;;19.04;100.00;95907.63;5008028;28;104854;-56
2023/06/30 03:53:52;;;;;;;10.40;8.83;;;;;;;19.10;100.00;95902.84;5007443;28;105319;-56
2023/06/30 03:56:21;;;;;;;9.87;8.20;;;;;;;19.09;100.00;95901.28;5008109;28;102252;-56
2023/06/30 03:58:48;;;;;;;10.23;8.23;;;;;;;19.13;100.00;95888.75;5008037;28;105253;-57
2023/06/30 04:01:15;;;;;;;10.87;8.37;;;;;;;19.14;100.00;95887.66;5007442;28;105712;-54
2023/06/30 04:03:44;;;;;;;9.73;8.33;;;;;;;19.18;100.00;95885.91;5009383;28;101886;-56
2023/06/30 04:06:11;;;;;;;8.83;7.73;;;;;;;19.24;100.00;95890.84;5012002;28;102587;-57
2023/06/30 04:08:38;;;;;;;9.20;7.63;;;;;;;19.26;100.00;95895.94;5007821;28;102068;-56
2023/06/30 04:11:05;;;;;;;10.50;7.90;;;;;;;19.25;100.00;95899.75;5007787;28;104210;-56
2023/06/30 04:13:32;;;;;;;10.83;8.40;;;;;;;19.22;100.00;95881.50;5007246;28;105278;-55
2023/06/30 04:15:59;;;;;;;11.27;8.13;;;;;;;19.24;100.00;95882.00;5007757;28;102111;-57
2023/06/30 04:18:27;;;;;;;11.03;8.23;;;;;;;19.28;100.00;95861.34;5007540;28;105553;-57
2023/06/30 04:20:55;;;;;;;9.97;7.50;;;;;;;19.35;100.00;95850.91;5007001;28;105898;-56
2023/06/30 04:23:22;;;;;;;9.73;8.07;;;;;;;19.36;100.00;95853.28;5007723;28;101977;-56
2023/06/30 04:25:48;;;;;;;9.57;8.57;;;;;;;19.22;100.00;95868.00;5007632;28;105425;-57
2023/06/30 04:28:15;;;;;;;10.03;7.67;;;;;;;19.00;100.00;95870.81;5010403;28;105744;-56
2023/06/30 04:30:42;;;;;;;9.77;8.77;;;;;;;19.00;100.00;95862.75;5010018;28;105366;-56
2023/06/30 04:33:09;;;;;;;10.77;8.50;;;;;;;19.03;100.00;95862.91;5010419;28;105111;-56
2023/06/30 04:35:36;;;;;;;9.70;8.20;;;;;;;19.04;100.00;95869.09;5011035;28;102128;-57
2023/06/30 04:38:04;;;;;;;9.47;8.43;;;;;;;18.98;100.00;95879.25;5010903;28;103667;-55
2023/06/30 04:40:31;;;;;;;11.90;8.50;;;;;;;18.92;100.00;95887.78;5010433;28;105351;-56
2023/06/30 04:43:00;;;;;;;10.43;8.70;;;;;;;18.88;100.00;95881.44;5010939;28;101924;-56
2023/06/30 04:45:27;;;;;;;10.47;8.13;;;;;;;18.93;100.00;95867.81;5010907;28;104904;-55
2023/06/30 04:47:54;;;;;;;11.33;9.13;;;;;;;18.79;100.00;95876.03;5013703;28;105023;-55
2023/06/30 04:50:21;;;;;;;11.40;9.13;;;;;;;18.74;100.00;95861.94;5011885;28;102690;-57
2023/06/30 04:52:48;;;;;;;10.23;8.27;;;;;;;18.74;100.00;95864.63;5010477;28;105113;-56
2023/06/30 04:55:16;;;;;;;11.43;8.67;;;;;;;18.81;100.00;95870.31;5011564;28;102029;-55
2023/06/30 04:57:43;;;;;;;9.30;7.80;;;;;;;18.81;100.00;95859.56;5011683;28;104768;-59
2023/06/30 05:00:12;;;;;;;11.67;7.67;;;;;;;19.13;100.00;95861.81;5010940;28;105421;-59
2023/06/30 05:02:39;;;;;;;13.30;7.50;;;;;;;19.30;100.00;95861.84;5011500;28;101933;-59
2023/06/30 05:05:07;;;;;;;9.83;7.50;;;;;;;19.41;100.00;95863.88;5011225;28;104912;-58
2023/06/30 05:07:33;;;;;;;10.97;8.00;;;;;;;19.38;100.00;95866.44;5010815;28;105447;-59
2023/06/30 05:10:00;;;;;;;8.80;7.13;;;;;;;19.45;100.00;95858.66;5014628;28;102009;-59
2023/06/30 05:12:29;;;;;;;11.03;8.10;;;;;;;19.55;100.00;95861.00;5010571;28;105307;-59
2023/06/30 05:14:55;;;;;;;9.83;8.23;;;;;;;19.67;100.00;95869.28;5011158;28;101902;-59
2023/06/30 05:17:22;;;;;;;10.10;8.03;;;;;;;19.65;100.00;95860.69;5011245;28;104901;-59
2023/06/30 05:19:49;;;;;;;9.13;8.17;;;;;;;19.39;100.00;95860.72;5010251;28;105095;-59
2023/06/30 05:22:16;;;;;;;8.97;7.60;;;;;;;19.68;100.00;95855.44;5011198;28;101898;-59
2023/06/30 05:24:43;;;;;;;9.20;8.17;;;;;;;19.93;100.00;95851.09;5010970;28;102556;-59
2023/06/30 05:27:10;;;;;;;10.50;8.73;;;;;;;19.80;100.00;95855.59;5011717;28;102580;-59
2023/06/30 05:29:38;;;;;;;9.00;8.10;;;;;;;20.02;100.00;95849.19;5010482;28;102130;-58
2023/06/30 05:32:06;;;;;;;10.43;9.17;;;;;;;20.27;100.00;95851.03;5013505;28;104048;-58
2023/06/30 05:34:33;;;;;;;12.20;8.70;;;;;;;20.24;100.00;95848.97;5010468;28;101938;-58
2023/06/30 05:37:00;;;;;;;10.03;8.57;;;;;;;20.14;100.00;95852.03;5010597;28;105698;-59
2023/06/30 05:39:27;;;;;;;10.33;8.60;;;;;;;19.99;100.00;95845.22;5009861;28;105291;-58
2023/06/30 05:41:54;;;;;;;11.80;8.73;;;;;;;20.36;100.00;95846.38;5010555;28;101911;-59
2023/06/30 05:44:21;;;;;;;9.30;8.10;;;;;;;20.23;100.00;95850.91;5010572;28;104829;-59
2023/06/30 05:46:49;;;;;;;9.53;8.53;;;;;;;20.14;100.00;95850.13;5010015;28;105658;-59
2023/06/30 05:49:16;;;;;;;9.73;8.30;;;;;;;20.53;100.00;95859.78;5010635;28;101969;-59
2023/06/30 05:51:43;;;;;;;8.90;8.00;;;;;;;20.58;100.00;95852.31;5011839;28;102469;-59
2023/06/30 05:54:10;;;;;;;10.47;8.10;;;;;;;20.68;100.00;95862.75;5013311;28;105427;-59
2023/06/30 05:56:38;;;;;;;10.23;8.70;;;;;;;20.22;100.00;95859.31;5011330;28;101884;-59
2023/06/30 05:59:09;;;;;;;9.70;8.47;;;;;;;20.15;100.00;95870.59;5009738;28;104209;-59
2023/06/30 06:01:38;;;;;;;12.03;8.83;;;;;;;20.35;100.00;95864.50;5010288;28;102139;-59
2023/06/30 06:04:09;;;;;;;10.33;8.57;;;;;;;20.64;100.00;95866.41;5009978;28;105020;-59
2023/06/30 06:06:37;;;;;;;11.87;8.57;;;;;;;20.60;100.00;95866.28;5010990;28;102879;-59
2023/06/30 06:09:04;;;;;;;11.53;8.90;;;;;;;20.38;100.00;95873.88;5010045;28;102193;-59
2023/06/30 06:11:31;;;;;;;11.07;7.67;;;;;;;20.52;100.00;95879.81;5011532;28;103058;-59
2023/06/30 06:13:58;;;;;;;10.97;8.03;;;;;;;20.78;100.00;95885.91;5009455;28;102937;-59
2023/06/30 06:16:25;;;;;;;12.47;8.83;;;;;;;20.83;100.00;95886.50;5014913;28;101877;-58
2023/06/30 06:18:52;;;;;;;10.93;8.97;;;;;;;20.61;100.00;95894.88;5008901;28;103752;-59
2023/06/30 06:21:26;;;;;;;9.67;8.67;;;;;;;20.72;100.00;95900.72;5009847;28;102214;-59
2023/06/30 06:23:53;;;;;;;10.80;9.17;;;;;;;20.46;100.00;95898.13;5010182;28;104212;-59
2023/06/30 06:26:20;;;;;;;10.80;8.90;;;;;;;20.43;100.00;95893.38;5009318;28;105352;-59
2023/06/30 06:28:46;;;;;;;11.27;8.47;;;;;;;20.31;100.00;95901.38;5009685;28;101934;-59
2023/06/30 06:31:13;;;;;;;10.93;8.37;;;;;;;20.40;100.00;95917.53;5009547;28;105614;-59
2023/06/30 06:33:41;;;;;;;13.10;9.70;;;;;;;20.29;100.00;95902.81;5009211;28;105058;-59
2023/06/30 06:36:08;;;;;;;11.80;9.10;;;;;;;20.35;100.00;95902.31;5009745;28;102349;-59
2023/06/30 06:38:36;;;;;;;13.70;9.80;;;;;;;20.35;100.00;95901.50;5012719;28;105697;-59
2023/06/30 06:41:03;;;;;;;11.83;9.00;;;;;;;20.46;100.00;95897.34;5009878;28;102210;-59
2023/06/30 06:43:30;;;;;;;12.30;9.20;;;;;;;20.55;100.00;95906.22;5009787;28;104832;-59
2023/06/30 06:45:57;;;;;;;12.80;9.40;;;;;;;20.34;100.00;95905.34;5009133;28;104252;-59
2023/06/30 06:48:26;;;;;;;11.97;10.70;;;;;;;19.74;100.00;95918.13;4997987;28;102020;-59
2023/06/30 06:50:54;;;;;;;11.60;10.40;;;;;;;19.64;100.00;95921.16;4993564;28;102457;-58
2023/06/30 06:53:22;;;;;;;12.53;10.70;;;;;;;19.61;100.00;95921.81;5008914;28;102829;-58
2023/06/30 06:55:51;;;;;;;12.07;10.87;;;;;;;19.68;100.00;95927.50;5008757;28;101942;-58
2023/06/30 06:58:19;;;;;;;14.27;10.70;;;;;;;19.90;100.00;95938.13;4998649;28;104804;-59
2023/06/30 07:00:47;;;;;;;11.77;10.50;;;;;;;19.75;100.00;95928.63;4988454;28;102315;-59
2023/06/30 07:03:14;;;;;;;14.43;10.43;;;;;;;19.61;100.00;95927.19;4988710;28;105016;-59
2023/06/30 07:05:43;;;;;;;12.03;10.63;;;;;;;19.70;100.00;95934.16;4988101;28;105788;-60
2023/06/30 07:08:10;;;;;;;13.57;10.97;;;;;;;19.69;100.00;95929.09;4988758;28;102028;-60
2023/06/30 07:10:37;;;;;;;14.00;10.80;;;;;;;19.57;100.00;95931.63;4989851;28;102645;-59
2023/06/30 07:13:06;;;;;;;12.83;11.50;;;;;;;19.48;100.00;95933.53;4987854;28;103856;-59
2023/06/30 07:15:34;;;;;;;13.83;11.40;;;;;;;19.54;100.00;95929.56;4993962;28;101897;-59
2023/06/30 07:18:01;;;;;;;12.77;11.37;;;;;;;19.47;100.00;95923.84;5008025;28;104160;-59
2023/06/30 07:20:28;;;;;;;12.10;10.63;;;;;;;19.57;100.00;95912.75;5011375;28;104035;-59
2023/06/30 07:22:56;;;;;;;12.00;10.77;;;;;;;19.69;100.00;95912.91;5008258;28;104982;-58
2023/06/30 07:25:23;;;;;;;12.97;10.50;;;;;;;19.69;100.00;95915.59;5007745;28;103909;-59
2023/06/30 07:27:52;;;;;;;12.73;10.60;;;;;;;19.80;100.00;95916.84;5008144;28;102054;-59
2023/06/30 07:30:21;;;;;;;13.97;12.47;;;;;;;19.81;100.00;95921.13;4994275;28;104803;-58
2023/06/30 07:32:49;;;;;;;13.00;11.50;;;;;;;19.82;100.00;95925.41;4987877;28;105308;-59
2023/06/30 07:35:16;;;;;;;13.30;10.83;;;;;;;19.89;100.00;95925.75;4988175;28;101980;-60
2023/06/30 07:37:43;;;;;;;12.83;10.80;;;;;;;19.93;100.00;95924.78;4988104;28;104870;-60
2023/06/30 07:40:11;;;;;;;15.43;12.43;;;;;;;20.00;100.00;95919.69;4987640;28;104170;-59
2023/06/30 07:42:39;;;;;;;14.30;12.00;;;;;;;19.85;100.00;95919.41;4991656;28;101911;-59
2023/06/30 07:45:09;;;;;;;15.80;11.50;;;;;;;19.81;100.00;95923.84;4987687;28;104988;-60
2023/06/30 07:47:39;;;;;;;15.97;10.53;;;;;;;19.78;100.00;95927.19;4989310;28;101943;-59
2023/06/30 07:50:09;;;;;;;12.10;10.40;;;;;;;19.81;100.00;95924.63;4993235;28;102982;-58
2023/06/30 07:52:37;;;;;;;11.23;9.87;;;;;;;19.75;100.00;95933.22;4990536;28;106312;-58
2023/06/30 07:55:05;;;;;;;12.53;9.43;;;;;;;19.83;100.00;95933.19;5006111;28;101868;-60
2023/06/30 07:57:32;;;;;;;11.27;9.97;;;;;;;19.65;100.00;95931.63;4989063;28;105385;-60
2023/06/30 07:59:59;;;;;;;13.07;10.00;;;;;;;19.69;100.00;95931.78;4987302;28;103685;-60
2023/06/30 08:02:26;;;;;;;10.93;9.70;;;;;;;19.64;100.00;95950.81;4988014;28;101983;-60
2023/06/30 08:04:54;;;;;;;12.60;10.10;;;;;;;19.45;100.00;95943.03;4994471;28;103724;-59
2023/06/30 08:07:21;;;;;;;12.27;9.73;;;;;;;19.42;100.00;95951.78;4991371;28;101904;-60
2023/06/30 08:09:48;;;;;;;12.17;9.73;;;;;;;19.24;100.00;95952.09;4992419;28;105133;-60
2023/06/30 08:12:15;;;;;;;10.67;9.43;;;;;;;19.16;100.00;95960.91;4991590;28;103952;-60
2023/06/30 08:14:43;;;;;;;11.87;10.13;;;;;;;19.11;100.00;95953.75;4993408;28;102069;-59
2023/06/30 08:17:10;;;;;;;12.33;9.97;;;;;;;19.09;100.00;95947.91;4991123;28;105447;-59
2023/06/30 08:19:41;;;;;;;10.87;9.70;;;;;;;19.06;100.00;95959.31;4990178;28;105769;-59
2023/06/30 08:22:13;;;;;;;12.67;10.43;;;;;;;19.18;100.00;95964.09;4992187;28;101762;-58
2023/06/30 08:24:41;;;;;;;11.17;9.93;;;;;;;19.21;100.00;95974.22;4991107;28;103542;-59
2023/06/30 08:27:08;;;;;;;14.40;10.70;;;;;;;19.15;100.00;95964.72;4994930;28;105118;-59
2023/06/30 08:29:35;;;;;;;11.00;9.90;;;;;;;19.48;100.00;95955.09;4990996;28;104836;-59
2023/06/30 08:32:02;;;;;;;13.83;10.13;;;;;;;19.76;100.00;95961.78;4991628;28;104285;-59
2023/06/30 08:34:29;;;;;;;11.20;9.37;;;;;;;19.88;100.00;95951.13;4991101;28;101955;-59
2023/06/30 08:36:56;;;;;;;11.87;10.20;;;;;;;20.18;100.00;95955.56;4992001;28;105461;-59
2023/06/30 08:39:27;;;;;;;10.17;8.80;;;;;;;20.48;100.00;95954.56;4990433;28;104188;-59
2023/06/30 08:41:56;;;;;;;10.67;9.57;;;;;;;20.65;100.00;95949.84;4992180;28;102130;-59
2023/06/30 08:44:25;;;;;;;12.13;9.87;;;;;;;20.78;100.00;95942.66;4991740;28;105021;-59
2023/06/30 08:46:53;;;;;;;9.77;8.77;;;;;;;21.10;100.00;95940.09;4991209;28;104303;-59
2023/06/30 08:49:22;;;;;;;10.13;9.13;;;;;;;20.92;100.00;95938.63;4995232;28;101816;-59
2023/06/30 08:51:54;;;;;;;11.03;9.60;;;;;;;20.94;100.00;95952.63;4990984;28;105312;-59
2023/06/30 08:54:21;;;;;;;11.37;9.73;;;;;;;21.03;100.00;95944.47;4991691;28;101801;-59
2023/06/30 08:56:49;;;;;;;11.40;9.50;;;;;;;21.10;100.00;95939.34;4991501;28;105306;-59
2023/06/30 08:59:16;;;;;;;11.53;10.10;;;;;;;21.00;100.00;95937.81;4992390;28;102675;-59
2023/06/30 09:01:45;;;;;;;11.83;10.20;;;;;;;21.25;100.00;95947.66;4990580;28;101918;-59
2023/06/30 09:04:13;;;;;;;11.10;9.90;;;;;;;21.14;100.00;95951.09;4990581;28;104840;-59
2023/06/30 09:06:47;;;;;;;13.07;11.03;;;;;;;20.99;100.00;95949.72;4992283;28;102879;-59
2023/06/30 09:09:21;;;;;;;11.23;10.13;;;;;;;21.32;100.00;95955.25;4995553;28;101819;-59
2023/06/30 09:11:51;;;;;;;11.77;9.83;;;;;;;21.42;100.00;95949.47;4991471;28;102780;-58
2023/06/30 09:14:20;;;;;;;10.50;9.27;;;;;;;21.37;100.00;95944.25;4990870;28;102029;-59
2023/06/30 09:16:47;;;;;;;12.17;10.87;;;;;;;21.37;100.00;95946.97;4990649;28;105557;-59
2023/06/30 09:19:15;;;;;;;10.57;9.47;;;;;;;21.38;100.00;95946.63;4990666;28;102649;-59
2023/06/30 09:21:42;;;;;;;13.80;10.23;;;;;;;21.26;100.00;95943.81;4991444;28;101867;-59
2023/06/30 09:24:10;;;;;;;12.33;10.70;;;;;;;21.13;100.00;95947.56;4990288;28;105875;-59
2023/06/30 09:26:36;;;;;;;14.33;10.10;;;;;;;21.24;100.00;95939.88;4989674;28;104404;-59
2023/06/30 09:29:09;;;;;;;11.27;10.10;;;;;;;21.11;100.00;95940.91;4990216;28;102121;-59
2023/06/30 09:31:37;;;;;;;13.13;10.03;;;;;;;21.19;100.00;95935.44;4993026;28;104280;-59
2023/06/30 09:34:11;;;;;;;11.10;9.90;;;;;;;21.17;100.00;95942.31;4991583;28;101855;-59
2023/06/30 09:36:46;;;;;;;11.47;9.63;;;;;;;21.21;100.00;95937.84;4991006;28;104393;-59
2023/06/30 09:39:13;;;;;;;10.67;9.47;;;;;;;21.17;100.00;95934.19;4990417;28;104198;-59
2023/06/30 09:41:42;;;;;;;10.67;9.63;;;;;;;21.36;100.00;95934.56;4990822;28;101976;-59
2023/06/30 09:44:12;;;;;;;10.30;9.20;;;;;;;21.56;100.00;95939.97;4990775;28;105184;-59
2023/06/30 09:47:00;;;;;;;10.70;9.30;;;;;;;21.52;100.00;95938.25;4990126;28;105304;-59
2023/06/30 09:49:30;;;;;;;10.73;9.63;;;;;;;21.54;100.00;95941.41;4969756;28;102212;-59
2023/06/30 09:51:57;;;;;;;11.43;10.00;;;;;;;21.38;100.00;95938.53;4953349;28;104836;-59
2023/06/30 09:54:25;;;;;;;12.20;10.17;;;;;;;21.33;100.00;95933.31;4955224;28;103848;-59
2023/06/30 09:56:58;;;;;;;13.17;9.67;;;;;;;21.52;100.00;95935.56;4952542;28;103679;-59
2023/06/30 09:59:27;;;;;;;11.40;10.30;;;;;;;21.26;100.00;95929.53;4952907;28;104338;-59
2023/06/30 10:01:55;;;;;;;12.53;9.83;;;;;;;21.52;100.00;95938.25;4952368;28;101959;-59
2023/06/30 10:04:22;;;;;;;10.63;9.30;;;;;;;21.55;100.00;95937.59;4953390;28;104179;-59
2023/06/30 10:06:51;;;;;;;10.10;9.10;;;;;;;21.68;100.00;95933.88;4952325;28;105794;-59
2023/06/30 10:09:21;;;;;;;10.23;9.23;;;;;;;21.49;100.00;95931.59;4953248;28;102092;-59
2023/06/30 10:11:51;;;;;;;10.20;9.03;;;;;;;21.76;100.00;95924.88;4953364;28;105049;-59
2023/06/30 10:14:21;;;;;;;10.80;8.83;;;;;;;21.92;100.00;95920.44;4952323;28;105653;-59
2023/06/30 10:16:49;;;;;;;9.73;8.40;;;;;;;22.13;100.00;95913.81;4956358;28;102190;-59
2023/06/30 10:19:17;;;;;;;9.23;8.27;;;;;;;22.47;100.00;95904.56;4951804;28;104370;-58
2023/06/30 10:21:44;;;;;;;8.83;7.93;;;;;;;22.70;100.00;95898.38;4953147;28;101917;-59
2023/06/30 10:24:12;;;;;;;10.17;9.00;;;;;;;22.83;100.00;95899.19;4953118;28;103673;-58
2023/06/30 10:26:40;;;;;;;9.10;8.20;;;;;;;23.14;100.00;95893.94;4968229;28;105710;-59
2023/06/30 10:29:07;;;;;;;9.07;8.27;;;;;;;23.35;100.00;95884.56;4991151;28;102017;-59
2023/06/30 10:31:35;;;;;;;9.37;8.13;;;;;;;23.57;100.00;95885.94;4989878;28;105115;-59
2023/06/30 10:34:05;;;;;;;9.03;8.03;;;;;;;23.72;100.00;95885.22;4989444;28;105283;-58
2023/06/30 10:36:33;;;;;;;10.47;8.57;;;;;;;23.86;100.00;95885.63;4989977;28;101962;-57
2023/06/30 10:39:00;;;;;;;9.27;8.10;;;;;;;24.05;100.00;95874.91;4992649;28;104828;-57
2023/06/30 10:41:28;;;;;;;9.23;8.33;;;;;;;24.68;100.00;95887.47;4990031;28;102045;-57
2023/06/30 10:44:08;;;;;;;12.33;8.83;;;;;;;24.89;100.00;95885.22;4991393;28;102943;-57
2023/06/30 10:46:41;;;;;;;8.77;7.97;;;;;;;24.46;100.00;95883.38;4989282;28;104405;-56
2023/06/30 10:49:23;;;;;;;8.53;7.73;;;;;;;23.07;100.00;95888.28;5050640;27;101670;-59
2023/06/30 10:51:51;;;;;;;8.80;7.50;;;;;;;24.03;100.00;95898.94;5047014;27;102620;-59
2023/06/30 10:54:22;;;;;;;9.07;6.97;;;;;;;24.41;100.00;95893.72;5047388;27;101736;-59
2023/06/30 10:56:48;;;;;;;8.20;7.40;;;;;;;24.18;100.00;95895.44;5047126;27;102325;-59
2023/06/30 10:59:23;;;;;;;8.63;7.83;;;;;;;24.77;100.00;95894.28;5045278;27;105330;-60
2023/06/30 11:02:15;;;;;;;9.20;8.30;;;;;;;24.99;100.00;95892.84;5047543;27;102063;-59
2023/06/30 11:04:45;;;;;;;8.63;7.77;;;;;;;24.60;100.00;95880.25;5047077;27;101905;-59
2023/06/30 11:07:17;;;;;;;10.23;8.37;;;;;;;24.35;100.00;95887.75;5046179;27;103138;-59
2023/06/30 11:09:58;;;;;;;9.90;8.23;;;;;;;24.28;100.00;95887.59;5049074;27;101910;-59
2023/06/30 11:12:27;;;;;;;7.00;6.30;;;;;;;24.64;100.00;95883.84;5044913;27;105472;-57
2023/06/30 11:14:55;;;;;;;12.40;8.70;;;;;;;24.71;100.00;95881.31;5047181;27;101918;-58
2023/06/30 11:17:22;;;;;;;8.23;7.30;;;;;;;24.53;100.00;95871.91;5047063;27;102373;-57